Time;durP1;ratioP1;P1;durP2;ratioP2;P2;SDS_P1;SDS_P2;PMS_P1;PMS_P2;Temp;Humidity;BMP_temperature;BMP_pressure;BME280_temperature;BME280_humidity;BME280_pressure;Samples;Min_cycle;Max_cycle;Signal;HPM_P1;HPM_P2
2022/07/10 00:00:06;;;;;;;10.68;3.08;;;13.50;99.90;;;;;;4921977;28;90352;-33
2022/07/10 00:02:31;;;;;;;5.53;2.38;;;13.40;99.90;;;;;;4920767;28;91225;-32
2022/07/10 00:04:57;;;;;;;3.63;2.10;;;13.40;99.90;;;;;;4957144;23;90534;-35
2022/07/10 00:07:22;;;;;;;5.07;2.03;;;13.40;99.90;;;;;;4922142;28;88096;-31
2022/07/10 00:09:48;;;;;;;6.20;1.70;;;13.40;99.90;;;;;;4921408;28;89234;-30
2022/07/10 00:12:14;;;;;;;4.00;1.83;;;13.30;99.90;;;;;;4921163;28;90532;-31
2022/07/10 00:14:39;;;;;;;12.63;3.13;;;13.30;99.90;;;;;;4921514;28;89643;-30
2022/07/10 00:17:05;;;;;;;5.13;2.55;;;13.30;99.90;;;;;;4921474;28;89198;-33
2022/07/10 00:19:30;;;;;;;2.05;1.83;;;13.20;99.90;;;;;;4920721;28;90277;-31
2022/07/10 00:21:56;;;;;;;3.13;1.55;;;13.20;99.90;;;;;;4921827;28;89858;-34
2022/07/10 00:24:22;;;;;;;2.35;1.67;;;13.20;99.90;;;;;;4921120;28;89804;-30
2022/07/10 00:26:47;;;;;;;6.70;2.35;;;13.10;99.90;;;;;;4921386;28;89962;-32
2022/07/10 00:29:13;;;;;;;6.57;2.00;;;13.10;99.90;;;;;;4921238;28;89955;-34
2022/07/10 00:31:39;;;;;;;3.70;1.40;;;13.10;99.90;;;;;;4921479;28;89608;-33
2022/07/10 00:34:06;;;;;;;6.97;2.33;;;13.00;99.90;;;;;;4920202;28;89380;-33
2022/07/10 00:36:32;;;;;;;8.50;3.10;;;13.00;99.90;;;;;;4921343;28;89872;-29
2022/07/10 00:38:57;;;;;;;4.50;1.25;;;13.00;99.90;;;;;;4920966;28;90072;-36
2022/07/10 00:41:23;;;;;;;3.88;2.30;;;12.90;99.90;;;;;;4921355;28;90462;-32
2022/07/10 00:43:57;;;;;;;3.67;2.42;;;12.90;99.90;;;;;;4920972;28;89568;-31
2022/07/10 00:46:23;;;;;;;3.47;2.08;;;12.80;99.90;;;;;;4921770;28;89926;-30
2022/07/10 00:48:49;;;;;;;4.68;1.92;;;12.80;99.90;;;;;;4921230;28;92750;-33
2022/07/10 00:51:18;;;;;;;3.83;2.10;;;12.80;99.90;;;;;;4920260;28;90637;-30
2022/07/10 00:53:47;;;;;;;;;;;12.70;99.90;;;;;;4921451;28;90514;-30
2022/07/10 00:56:16;;;;;;;4.65;2.00;;;12.70;99.90;;;;;;4922306;28;88943;-32
2022/07/10 00:58:46;;;;;;;8.75;2.70;;;12.70;99.90;;;;;;4921049;28;90284;-32
2022/07/10 01:01:12;;;;;;;3.53;1.63;;;12.60;99.90;;;;;;4920667;28;90235;-32
2022/07/10 01:03:37;;;;;;;5.80;2.80;;;12.60;99.90;;;;;;4921235;28;89484;-30
2022/07/10 01:06:03;;;;;;;8.40;2.25;;;12.60;99.90;;;;;;4920396;28;88393;-31
2022/07/10 01:08:29;;;;;;;2.72;2.22;;;12.60;99.90;;;;;;4920602;28;90428;-33
2022/07/10 01:10:55;;;;;;;8.95;2.83;;;12.50;99.90;;;;;;4920497;28;89800;-32
2022/07/10 01:13:21;;;;;;;5.03;2.58;;;12.50;99.90;;;;;;4920637;28;89563;-30
2022/07/10 01:15:48;;;;;;;2.80;1.63;;;12.50;99.90;;;;;;4921433;28;88981;-30
2022/07/10 01:18:14;;;;;;;4.70;2.33;;;12.40;99.90;;;;;;4919641;28;90495;-31
2022/07/10 01:20:40;;;;;;;4.18;2.03;;;12.40;99.90;;;;;;4921106;28;89979;-32
2022/07/10 01:23:06;;;;;;;7.05;2.15;;;12.40;99.90;;;;;;4915818;28;89325;-30
2022/07/10 01:25:32;;;;;;;4.60;2.40;;;12.40;99.90;;;;;;4915715;28;89507;-34
2022/07/10 01:27:58;;;;;;;7.70;2.20;;;12.40;99.90;;;;;;4919433;28;90746;-31
2022/07/10 01:30:25;;;;;;;9.52;3.00;;;12.40;99.90;;;;;;4919061;28;89550;-30
2022/07/10 01:32:52;;;;;;;6.45;2.83;;;12.40;99.90;;;;;;4920238;28;89483;-34
2022/07/10 01:35:17;;;;;;;3.95;1.83;;;12.40;99.90;;;;;;4921009;28;88753;-31
2022/07/10 01:37:43;;;;;;;5.40;2.20;;;12.40;99.90;;;;;;4920194;28;89977;-31
2022/07/10 01:40:09;;;;;;;4.40;1.88;;;12.40;99.90;;;;;;4920369;28;90632;-32
2022/07/10 01:42:35;;;;;;;8.25;2.03;;;12.50;99.90;;;;;;4920173;28;90922;-31
2022/07/10 01:45:00;;;;;;;7.50;2.00;;;12.50;99.90;;;;;;4920702;28;89628;-31
2022/07/10 01:47:27;;;;;;;4.40;2.47;;;12.50;99.90;;;;;;4920583;28;90100;-30
2022/07/10 01:49:53;;;;;;;2.80;2.03;;;12.50;99.90;;;;;;4920197;28;89991;-33
2022/07/10 01:52:22;;;;;;;6.38;2.95;;;12.50;99.90;;;;;;4919769;28;89358;-32
2022/07/10 01:54:48;;;;;;;3.95;1.90;;;12.50;99.90;;;;;;4920443;28;88171;-35
2022/07/10 01:57:15;;;;;;;5.75;2.30;;;12.50;99.90;;;;;;4920608;28;91463;-31
2022/07/10 01:59:40;;;;;;;5.75;2.38;;;12.50;99.90;;;;;;4920216;28;89499;-30
2022/07/10 02:02:06;;;;;;;5.80;1.67;;;12.50;99.90;;;;;;4919923;28;89805;-31
2022/07/10 02:04:41;;;;;;;4.80;2.17;;;12.50;99.90;;;;;;4919190;28;89873;-33
2022/07/10 02:07:11;;;;;;;7.38;2.20;;;12.50;99.90;;;;;;4920106;28;90287;-34
2022/07/10 02:09:38;;;;;;;5.85;2.22;;;12.40;99.90;;;;;;4919791;28;90310;-32
2022/07/10 02:12:05;;;;;;;2.83;2.05;;;12.40;99.90;;;;;;4920363;28;89619;-31
2022/07/10 02:14:31;;;;;;;3.67;2.42;;;12.40;99.90;;;;;;4920193;28;87982;-30
2022/07/10 02:16:56;;;;;;;4.88;2.63;;;12.40;99.90;;;;;;4919783;28;89938;-31
2022/07/10 02:19:22;;;;;;;4.03;2.22;;;12.40;99.90;;;;;;4919844;28;89620;-30
2022/07/10 02:21:47;;;;;;;5.57;2.60;;;12.40;99.90;;;;;;4920052;28;88323;-34
2022/07/10 02:24:13;;;;;;;16.08;2.92;;;12.40;99.90;;;;;;4920526;28;88093;-31
2022/07/10 02:26:39;;;;;;;7.03;2.35;;;12.40;99.90;;;;;;4919723;28;90327;-31
2022/07/10 02:29:04;;;;;;;5.65;2.08;;;12.40;99.90;;;;;;4919232;28;90571;-33
2022/07/10 02:31:30;;;;;;;4.95;2.22;;;12.30;99.90;;;;;;4919593;28;92269;-32
2022/07/10 02:33:56;;;;;;;4.60;2.15;;;12.30;99.90;;;;;;4919650;28;88315;-31
2022/07/10 02:36:21;;;;;;;6.22;1.70;;;12.30;99.90;;;;;;4917610;28;90654;-30
2022/07/10 02:38:47;;;;;;;3.03;2.00;;;12.20;99.90;;;;;;4918840;28;89726;-30
2022/07/10 02:41:12;;;;;;;6.88;2.42;;;12.20;99.90;;;;;;4919470;28;89488;-34
2022/07/10 02:43:38;;;;;;;8.90;2.25;;;12.20;99.90;;;;;;4921614;28;87777;-31
2022/07/10 02:46:05;;;;;;;3.08;2.25;;;12.20;99.90;;;;;;4923319;28;90210;-31
2022/07/10 02:48:30;;;;;;;8.07;2.05;;;12.20;99.90;;;;;;4922544;28;91757;-30
2022/07/10 02:50:56;;;;;;;6.47;2.55;;;12.20;99.90;;;;;;4922940;28;89444;-30
2022/07/10 02:53:21;;;;;;;10.20;2.63;;;12.20;99.90;;;;;;4922258;28;90046;-34
2022/07/10 02:55:47;;;;;;;4.65;2.42;;;12.20;99.90;;;;;;4922643;28;89205;-29
2022/07/10 02:58:15;;;;;;;7.65;2.55;;;12.20;99.90;;;;;;4923020;28;90627;-32
2022/07/10 03:00:41;;;;;;;10.45;1.95;;;12.10;99.90;;;;;;4922881;28;89424;-32
2022/07/10 03:03:07;;;;;;;8.35;2.47;;;12.10;99.90;;;;;;4921950;28;89073;-32
2022/07/10 03:05:33;;;;;;;3.72;1.90;;;12.10;99.90;;;;;;4922215;28;90125;-33
2022/07/10 03:07:59;;;;;;;3.85;2.30;;;12.10;99.90;;;;;;4922849;28;89632;-30
2022/07/10 03:10:24;;;;;;;4.57;2.13;;;12.10;99.90;;;;;;4922937;28;89911;-35
2022/07/10 03:12:50;;;;;;;8.43;2.85;;;12.10;99.90;;;;;;4923276;28;89240;-29
2022/07/10 03:15:16;;;;;;;9.40;2.53;;;12.00;99.90;;;;;;4921972;28;90434;-29
2022/07/10 03:17:41;;;;;;;3.58;2.05;;;12.00;99.90;;;;;;4921958;28;90623;-33
2022/07/10 03:20:08;;;;;;;14.95;2.60;;;12.00;99.90;;;;;;4921985;28;90830;-30
2022/07/10 03:22:34;;;;;;;3.00;1.77;;;12.00;99.90;;;;;;4922923;28;89057;-31
2022/07/10 03:25:00;;;;;;;13.45;2.80;;;12.00;99.90;;;;;;4922819;28;90379;-33
2022/07/10 03:27:26;;;;;;;9.60;2.55;;;11.90;99.90;;;;;;4921964;28;89655;-30
2022/07/10 03:29:51;;;;;;;3.67;1.50;;;12.00;99.90;;;;;;4922399;28;88153;-30
2022/07/10 03:32:17;;;;;;;3.78;1.70;;;11.90;99.90;;;;;;4922205;28;89666;-31
2022/07/10 03:34:43;;;;;;;4.97;1.90;;;11.90;99.90;;;;;;4922243;28;89202;-31
2022/07/10 03:37:08;;;;;;;11.40;2.50;;;11.90;99.90;;;;;;4922394;28;89425;-33
2022/07/10 03:39:34;;;;;;;3.25;1.55;;;11.90;99.90;;;;;;4921673;28;89831;-30
2022/07/10 03:42:00;;;;;;;6.03;2.47;;;11.90;99.90;;;;;;4922221;28;88364;-30
2022/07/10 03:44:25;;;;;;;8.27;2.25;;;11.80;99.90;;;;;;4921768;28;90334;-30
2022/07/10 03:46:51;;;;;;;10.95;2.78;;;11.80;99.90;;;;;;4922369;28;89580;-35
2022/07/10 03:49:16;;;;;;;5.93;2.17;;;11.80;99.90;;;;;;4921469;28;90216;-32
2022/07/10 03:51:42;;;;;;;3.05;2.15;;;11.80;99.90;;;;;;4921654;28;89369;-34
2022/07/10 03:54:08;;;;;;;5.53;2.00;;;11.80;99.90;;;;;;4920994;28;90234;-30
2022/07/10 03:59:18;;;;;;;3.88;1.65;;;11.80;99.90;;;;;;4922509;28;89620;-31
2022/07/10 04:01:43;;;;;;;6.07;2.15;;;11.80;99.90;;;;;;4922066;28;89409;-30
2022/07/10 04:04:09;;;;;;;10.45;2.08;;;11.80;99.90;;;;;;4920991;28;90399;-33
2022/07/10 04:06:37;;;;;;;4.18;2.03;;;11.90;99.90;;;;;;4921792;28;89614;-32
2022/07/10 04:09:04;;;;;;;8.38;1.88;;;12.00;99.90;;;;;;4921200;28;90002;-33
2022/07/10 04:11:29;;;;;;;7.03;2.35;;;12.00;99.90;;;;;;4921551;28;88800;-30
2022/07/10 04:13:55;;;;;;;8.75;2.03;;;12.10;99.90;;;;;;4922227;28;89456;-30
2022/07/10 04:16:20;;;;;;;10.75;2.50;;;12.20;99.90;;;;;;4921163;28;89711;-32
2022/07/10 04:18:46;;;;;;;4.38;2.50;;;12.30;99.90;;;;;;4921948;28;90519;-31
2022/07/10 04:21:12;;;;;;;3.85;1.92;;;12.40;99.90;;;;;;4922112;28;90471;-32
2022/07/10 04:23:37;;;;;;;4.63;2.33;;;12.50;99.90;;;;;;4921420;28;90319;-31
2022/07/10 04:26:03;;;;;;;2.85;1.63;;;12.60;99.90;;;;;;4921278;28;89776;-31
2022/07/10 04:28:28;;;;;;;3.63;1.58;;;12.70;99.90;;;;;;4921686;28;89368;-32
2022/07/10 04:30:54;;;;;;;5.13;1.98;;;12.80;99.90;;;;;;4921553;28;89618;-31
2022/07/10 04:33:20;;;;;;;3.90;1.70;;;12.80;99.90;;;;;;4920117;28;90142;-29
2022/07/10 04:35:45;;;;;;;4.82;2.08;;;12.80;99.90;;;;;;4921263;28;90212;-31
2022/07/10 04:38:11;;;;;;;5.13;1.58;;;12.80;99.90;;;;;;4921150;28;88873;-33
2022/07/10 04:40:36;;;;;;;6.72;1.55;;;12.90;99.90;;;;;;4921924;28;88355;-31
2022/07/10 04:43:02;;;;;;;8.00;1.88;;;12.90;99.90;;;;;;4920964;28;92115;-31
2022/07/10 04:45:27;;;;;;;4.80;2.15;;;12.90;99.90;;;;;;4921003;28;89826;-30
2022/07/10 04:47:53;;;;;;;5.43;2.10;;;13.00;99.90;;;;;;4921677;28;89536;-32
2022/07/10 04:50:19;;;;;;;4.30;2.05;;;13.00;99.90;;;;;;4920552;28;88735;-32
2022/07/10 04:52:44;;;;;;;2.78;1.52;;;13.10;99.90;;;;;;4921254;28;90253;-33
2022/07/10 04:55:10;;;;;;;4.60;1.85;;;13.10;99.90;;;;;;4919501;28;91146;-33
2022/07/10 04:57:35;;;;;;;7.10;2.30;;;13.10;99.90;;;;;;4920641;28;90503;-32
2022/07/10 05:00:03;;;;;;;5.45;2.20;;;13.10;99.90;;;;;;4920207;28;89277;-32
2022/07/10 05:02:28;;;;;;;5.97;2.38;;;13.20;99.90;;;;;;4920640;28;90718;-31
2022/07/10 05:04:54;;;;;;;5.57;2.30;;;13.20;99.90;;;;;;4920161;28;90249;-33
2022/07/10 05:07:19;;;;;;;5.35;1.80;;;13.20;99.90;;;;;;4920689;28;89654;-32
2022/07/10 05:09:45;;;;;;;4.10;1.77;;;13.20;99.90;;;;;;4921153;28;88584;-32
2022/07/10 05:12:10;;;;;;;8.35;3.03;;;13.20;99.90;;;;;;4920337;28;91412;-31
2022/07/10 05:14:36;;;;;;;6.75;2.13;;;13.30;99.90;;;;;;4920834;28;89979;-32
2022/07/10 05:17:02;;;;;;;5.93;1.85;;;13.30;99.90;;;;;;4920600;28;91135;-31
2022/07/10 05:19:27;;;;;;;3.30;1.95;;;13.40;99.90;;;;;;4919856;28;89440;-30
2022/07/10 05:21:53;;;;;;;6.25;1.90;;;13.40;99.90;;;;;;4920465;28;88587;-33
2022/07/10 05:24:18;;;;;;;10.73;2.65;;;13.40;99.90;;;;;;4919963;28;89558;-34
2022/07/10 05:26:44;;;;;;;9.07;2.97;;;13.50;99.90;;;;;;4921041;28;90048;-31
2022/07/10 05:29:09;;;;;;;5.03;2.13;;;13.50;99.90;;;;;;4919948;28;88878;-32
2022/07/10 05:31:35;;;;;;;3.80;2.70;;;13.50;99.90;;;;;;4920577;28;90628;-32
2022/07/10 05:34:01;;;;;;;4.45;1.45;;;13.60;99.90;;;;;;4919736;28;90004;-31
2022/07/10 05:36:26;;;;;;;4.10;2.10;;;13.60;99.90;;;;;;4920276;28;89610;-31
2022/07/10 05:38:52;;;;;;;8.90;2.05;;;13.60;99.90;;;;;;4920531;28;88279;-33
2022/07/10 05:41:17;;;;;;;7.20;1.98;;;13.70;99.90;;;;;;4920012;28;89265;-30
2022/07/10 05:43:43;;;;;;;7.28;2.00;;;13.70;99.90;;;;;;4919599;28;90842;-31
2022/07/10 05:46:08;;;;;;;4.75;2.25;;;13.70;99.90;;;;;;4919573;28;90610;-34
2022/07/10 05:48:34;;;;;;;4.80;2.95;;;13.80;99.90;;;;;;4920572;28;89318;-31
2022/07/10 05:51:00;;;;;;;7.65;1.63;;;13.80;99.90;;;;;;4920721;28;88782;-31
2022/07/10 05:53:25;;;;;;;5.85;2.33;;;13.90;99.90;;;;;;4919714;28;90003;-30
2022/07/10 05:55:51;;;;;;;5.43;2.00;;;14.00;99.90;;;;;;4920340;28;88915;-33
2022/07/10 05:58:17;;;;;;;6.40;2.17;;;14.00;99.90;;;;;;4920160;28;88987;-32
2022/07/10 06:00:43;;;;;;;7.95;2.72;;;14.00;99.90;;;;;;4920535;28;90098;-31
2022/07/10 06:03:10;;;;;;;5.60;2.78;;;14.10;99.90;;;;;;4920063;28;88581;-33
2022/07/10 06:05:36;;;;;;;4.68;2.13;;;14.10;99.90;;;;;;4919856;28;89539;-29
2022/07/10 06:08:02;;;;;;;4.22;2.33;;;14.10;99.90;;;;;;4920522;28;89348;-32
2022/07/10 06:10:28;;;;;;;7.03;2.03;;;14.20;99.90;;;;;;4919877;28;90411;-32
2022/07/10 06:12:53;;;;;;;6.95;3.25;;;14.20;99.90;;;;;;4919910;28;89782;-31
2022/07/10 06:15:19;;;;;;;4.10;2.10;;;14.30;99.90;;;;;;4919705;28;89448;-29
2022/07/10 06:17:45;;;;;;;4.78;2.22;;;14.30;99.90;;;;;;4922392;28;89662;-31
2022/07/10 06:20:11;;;;;;;6.70;2.00;;;14.30;99.90;;;;;;4923156;28;90151;-30
2022/07/10 06:22:36;;;;;;;6.82;2.17;;;14.40;99.90;;;;;;4922816;28;90041;-31
2022/07/10 06:25:06;;;;;;;6.65;2.65;;;14.40;99.90;;;;;;4923243;28;90077;-34
2022/07/10 06:27:33;;;;;;;5.20;1.70;;;14.50;99.90;;;;;;4923528;28;89532;-32
2022/07/10 06:29:59;;;;;;;6.72;2.33;;;14.50;99.90;;;;;;4922998;28;90156;-31
2022/07/10 06:32:26;;;;;;;6.72;2.50;;;14.60;99.90;;;;;;4922591;28;90424;-32
2022/07/10 06:34:55;;;;;;;5.43;2.15;;;14.70;99.90;;;;;;4923063;28;90306;-31
2022/07/10 06:37:21;;;;;;;4.30;2.30;;;14.70;99.90;;;;;;4923018;28;87986;-34
2022/07/10 06:39:47;;;;;;;4.25;2.03;;;14.80;99.90;;;;;;4922867;28;90531;-30
2022/07/10 06:42:13;;;;;;;3.65;1.75;;;14.80;99.90;;;;;;4922709;28;90081;-32
2022/07/10 06:44:39;;;;;;;6.65;2.15;;;14.90;99.90;;;;;;4923370;28;89150;-34
2022/07/10 06:49:51;;;;;;;11.27;2.33;;;15.10;99.90;;;;;;4922343;28;90714;-32
2022/07/10 06:52:17;;;;;;;10.68;2.38;;;15.10;99.90;;;;;;4923256;28;89650;-32
2022/07/10 06:54:43;;;;;;;3.17;2.38;;;15.20;99.90;;;;;;4920898;28;88037;-33
2022/07/10 06:57:09;;;;;;;3.72;2.28;;;15.20;99.90;;;;;;4922616;28;89876;-31
2022/07/10 06:59:34;;;;;;;5.22;2.55;;;15.20;99.90;;;;;;4923119;28;90430;-31
2022/07/10 07:02:00;;;;;;;2.35;2.05;;;15.20;99.90;;;;;;4922555;28;90097;-31
2022/07/10 07:04:26;;;;;;;8.73;2.47;;;15.20;99.90;;;;;;4922706;28;89286;-31
2022/07/10 07:06:51;;;;;;;5.13;2.13;;;15.20;99.90;;;;;;4923348;28;88528;-30
2022/07/10 07:09:17;;;;;;;5.50;2.42;;;15.10;99.90;;;;;;4922980;28;91243;-33
2022/07/10 07:11:42;;;;;;;9.23;2.17;;;15.10;99.90;;;;;;4922363;28;89538;-31
2022/07/10 07:14:08;;;;;;;7.40;3.47;;;15.10;99.90;;;;;;4922672;28;89441;-30
2022/07/10 07:16:44;;;;;;;8.13;2.70;;;15.00;99.90;;;;;;4923022;28;88069;-32
2022/07/10 07:19:11;;;;;;;4.20;3.67;;;15.00;99.90;;;;;;4922206;28;90910;-31
2022/07/10 07:24:21;;;;;;;7.28;2.55;;;15.00;99.90;;;;;;4922026;28;92716;-34
2022/07/10 07:26:47;;;;;;;6.10;2.70;;;15.00;99.90;;;;;;4922504;28;89241;-33
2022/07/10 07:29:16;;;;;;;8.88;2.80;;;15.10;99.90;;;;;;4919755;28;90129;-31
2022/07/10 07:31:42;;;;;;;7.22;4.05;;;15.10;99.90;;;;;;4909823;28;90033;-32
2022/07/10 07:34:08;;;;;;;8.65;3.33;;;15.20;99.90;;;;;;4917376;28;90084;-31
2022/07/10 07:36:34;;;;;;;4.43;1.90;;;15.20;99.90;;;;;;4921144;28;89071;-30
2022/07/10 07:38:59;;;;;;;5.50;3.15;;;15.30;99.90;;;;;;4921564;28;90906;-33
2022/07/10 07:41:25;;;;;;;5.03;2.65;;;15.40;99.90;;;;;;4921616;28;89599;-34
2022/07/10 07:43:50;;;;;;;5.65;2.25;;;15.40;99.90;;;;;;4921993;28;89583;-31
2022/07/10 07:46:16;;;;;;;3.40;2.35;;;15.50;99.90;;;;;;4920946;28;90410;-31
2022/07/10 07:48:42;;;;;;;10.27;2.72;;;15.50;99.90;;;;;;4920963;28;90571;-32
2022/07/10 07:51:07;;;;;;;6.63;2.85;;;15.60;99.90;;;;;;4920414;28;89247;-30
2022/07/10 07:53:33;;;;;;;9.20;2.60;;;15.70;99.90;;;;;;4921580;28;89565;-32
2022/07/10 07:55:59;;;;;;;4.93;1.98;;;15.80;99.90;;;;;;4921598;28;89692;-31
2022/07/10 07:58:24;;;;;;;9.23;2.20;;;16.00;99.90;;;;;;4920914;28;90268;-33
2022/07/10 08:00:50;;;;;;;6.18;2.33;;;16.20;99.90;;;;;;4919200;28;89894;-30
2022/07/10 08:03:16;;;;;;;10.65;2.67;;;16.50;99.90;;;;;;4917666;28;90019;-31
2022/07/10 08:05:42;;;;;;;4.95;1.80;;;16.70;99.90;;;;;;4919134;28;88248;-31
2022/07/10 08:08:09;;;;;;;4.50;2.25;;;16.90;99.90;;;;;;4919276;28;90513;-32
2022/07/10 08:10:36;;;;;;;7.80;2.50;;;17.10;99.90;;;;;;4917992;28;89404;-30
2022/07/10 08:13:03;;;;;;;2.88;1.88;;;17.20;99.90;;;;;;4918790;28;90226;-33
2022/07/10 08:15:30;;;;;;;2.58;1.70;;;17.20;99.90;;;;;;4919201;28;90148;-30
2022/07/10 08:17:57;;;;;;;6.63;2.42;;;17.20;99.90;;;;;;4919016;28;90173;-32
2022/07/10 08:20:25;;;;;;;8.50;2.07;;;17.20;99.90;;;;;;4918554;28;89790;-33
2022/07/10 08:22:52;;;;;;;8.65;2.10;;;17.10;99.90;;;;;;4919203;28;89791;-31
2022/07/10 08:25:18;;;;;;;1.63;1.42;;;17.10;99.90;;;;;;4919148;28;88802;-31
2022/07/10 08:27:44;;;;;;;2.17;1.00;;;16.80;99.90;;;;;;4918918;28;90427;-34
2022/07/10 08:30:10;;;;;;;2.75;1.20;;;16.70;99.90;;;;;;4918862;28;89851;-31
2022/07/10 08:32:40;;;;;;;0.80;0.68;;;16.40;99.90;;;;;;4919449;28;90684;-32
2022/07/10 08:35:07;;;;;;;7.07;1.70;;;16.30;99.90;;;;;;4917758;28;90508;-32
2022/07/10 08:37:40;;;;;;;4.70;1.50;;;16.20;99.90;;;;;;4918415;28;90441;-30
2022/07/10 08:40:08;;;;;;;2.25;1.35;;;16.20;99.90;;;;;;4917552;28;91216;-34
2022/07/10 08:42:33;;;;;;;;;;;16.20;99.90;;;;;;4918879;28;90840;-31
2022/07/10 08:44:59;;;;;;;3.55;1.48;;;16.10;99.90;;;;;;4920058;28;89024;-31
2022/07/10 08:47:25;;;;;;;3.63;1.83;;;16.20;99.90;;;;;;4918496;28;91770;-32
2022/07/10 08:49:51;;;;;;;4.32;1.30;;;16.30;99.90;;;;;;4918053;28;89385;-31
2022/07/10 08:53:04;;;;;;;7.40;1.83;;;16.40;99.90;;;;;;4918688;28;90006;-30
2022/07/10 08:55:30;;;;;;;2.58;1.17;;;16.50;99.90;;;;;;4896144;28;89044;-33
2022/07/10 08:57:58;;;;;;;4.35;1.50;;;16.50;99.90;;;;;;4896072;28;90204;-32
2022/07/10 09:00:24;;;;;;;3.17;1.35;;;16.50;99.90;;;;;;4907233;28;90491;-31
2022/07/10 09:02:50;;;;;;;7.18;1.40;;;16.50;99.90;;;;;;4918621;28;90694;-33
2022/07/10 09:05:16;;;;;;;4.43;1.90;;;16.60;99.90;;;;;;4918048;28;89150;-34
2022/07/10 09:07:43;;;;;;;2.50;1.05;;;16.60;99.90;;;;;;4918694;28;90629;-32
2022/07/10 09:10:10;;;;;;;1.73;1.02;;;16.70;99.90;;;;;;4917521;28;90027;-32
2022/07/10 09:12:56;;;;;;;1.40;1.00;;;16.70;99.90;;;;;;4917503;28;90186;-32
2022/07/10 09:15:25;;;;;;;1.80;1.17;;;16.70;99.90;;;;;;4918535;28;88619;-31
2022/07/10 09:17:54;;;;;;;4.43;1.75;;;16.70;99.90;;;;;;4918806;28;90652;-31
2022/07/10 09:20:29;;;;;;;1.73;1.02;;;16.80;99.90;;;;;;4918152;28;90215;-31
2022/07/10 09:22:57;;;;;;;4.80;1.90;;;16.80;99.90;;;;;;4918274;28;88662;-32
2022/07/10 09:25:32;;;;;;;2.65;1.45;;;16.80;99.90;;;;;;4917832;28;90577;-30
2022/07/10 09:27:59;;;;;;;8.73;1.70;;;16.80;99.90;;;;;;4896119;28;90396;-35
2022/07/10 09:30:33;;;;;;;0.83;0.83;;;16.70;99.90;;;;;;4931848;28;89127;-32
2022/07/10 09:33:25;;;;;;;4.63;1.10;;;16.70;99.90;;;;;;4937560;28;89379;-34
2022/07/10 09:36:07;;;;;;;0.93;0.77;;;16.70;99.90;;;;;;4937477;28;90106;-32
2022/07/10 09:38:39;;;;;;;3.20;1.40;;;16.70;99.90;;;;;;4928240;28;90385;-33
2022/07/10 09:41:23;;;;;;;1.45;1.20;;;16.90;99.90;;;;;;4937231;28;90184;-34
2022/07/10 09:44:18;;;;;;;2.05;1.10;;;16.90;99.90;;;;;;4929521;28;90361;-33
2022/07/10 09:46:44;;;;;;;3.35;1.13;;;17.00;99.90;;;;;;4927698;28;88539;-31
2022/07/10 09:49:11;;;;;;;1.38;0.80;;;17.00;99.90;;;;;;4937042;28;89754;-33
2022/07/10 09:51:40;;;;;;;4.07;1.20;;;17.00;99.90;;;;;;4937274;28;90757;-33
2022/07/10 09:54:08;;;;;;;3.75;1.08;;;17.00;99.90;;;;;;4940298;28;91680;-32
2022/07/10 09:56:42;;;;;;;2.28;1.27;;;17.00;99.90;;;;;;4939561;28;89314;-30
2022/07/10 09:59:15;;;;;;;2.10;1.05;;;17.10;99.90;;;;;;4937374;28;90542;-30
2022/07/10 10:01:47;;;;;;;1.30;1.20;;;17.10;99.90;;;;;;4939926;28;90462;-33
2022/07/10 10:04:16;;;;;;;1.58;1.15;;;17.20;99.90;;;;;;4938953;28;90309;-31
2022/07/10 10:06:42;;;;;;;2.15;1.40;;;17.20;99.90;;;;;;4940671;28;89014;-33
2022/07/10 10:09:29;;;;;;;2.50;1.15;;;17.30;99.90;;;;;;4927861;28;90319;-33
2022/07/10 10:12:00;;;;;;;0.88;0.88;;;17.30;99.90;;;;;;4940360;28;88495;-33
2022/07/10 10:14:27;;;;;;;2.00;1.08;;;17.30;99.90;;;;;;4940590;28;88843;-30
2022/07/10 10:16:55;;;;;;;5.18;1.10;;;17.10;99.90;;;;;;4940893;28;89385;-30
2022/07/10 10:22:12;;;;;;;1.67;1.50;;;17.00;99.90;;;;;;4940038;28;90821;-32
2022/07/10 10:24:39;;;;;;;3.50;1.10;;;17.00;99.90;;;;;;4939618;28;90753;-30
2022/07/10 10:27:06;;;;;;;1.27;1.17;;;17.00;99.90;;;;;;4940008;28;89720;-33
2022/07/10 10:29:34;;;;;;;2.22;1.45;;;17.00;99.90;;;;;;4940886;28;90327;-30
2022/07/10 10:32:00;;;;;;;1.30;1.02;;;16.90;99.90;;;;;;4940092;28;88799;-33
2022/07/10 10:34:43;;;;;;;1.02;1.02;;;16.90;99.90;;;;;;4940090;28;89162;-30
2022/07/10 10:37:27;;;;;;;1.02;0.82;;;16.90;99.90;;;;;;4940885;28;89366;-30
2022/07/10 10:39:54;;;;;;;1.65;0.95;;;16.90;99.90;;;;;;4939382;28;90234;-31
2022/07/10 10:42:55;;;;;;;0.82;0.80;;;16.80;99.90;;;;;;4939220;28;90204;-35
2022/07/10 10:45:31;;;;;;;0.70;0.70;;;16.80;99.90;;;;;;4897940;28;90251;-32
2022/07/10 10:48:10;;;;;;;0.90;0.90;;;16.80;99.90;;;;;;4934167;28;89418;-34
2022/07/10 10:50:54;;;;;;;2.88;1.65;;;16.80;99.90;;;;;;4939820;28;90199;-31
2022/07/10 10:53:22;;;;;;;2.75;1.42;;;16.80;99.90;;;;;;4940241;28;90127;-31
2022/07/10 10:56:00;;;;;;;2.58;1.40;;;16.80;99.90;;;;;;4939680;28;89411;-30
2022/07/10 10:58:46;;;;;;;1.30;1.20;;;16.80;99.90;;;;;;4939453;28;89633;-32
2022/07/10 11:01:20;;;;;;;1.30;1.20;;;16.80;99.90;;;;;;4938651;28;90649;-30
2022/07/10 11:04:05;;;;;;;9.50;1.52;;;16.80;99.90;;;;;;4938865;28;90181;-31
2022/07/10 11:06:42;;;;;;;0.88;0.88;;;16.80;99.90;;;;;;4939928;28;89479;-33
2022/07/10 11:09:31;;;;;;;1.45;1.15;;;16.70;99.90;;;;;;4938839;28;88913;-33
2022/07/10 11:12:04;;;;;;;1.45;1.35;;;16.80;99.90;;;;;;4939871;28;90408;-34
2022/07/10 11:14:32;;;;;;;1.65;1.20;;;16.90;99.90;;;;;;4939506;28;90014;-32
2022/07/10 11:16:58;;;;;;;;;;;17.00;99.90;;;;;;4939721;28;89870;-30
2022/07/10 11:19:26;;;;;;;4.65;2.28;;;17.00;99.90;;;;;;4941014;28;88653;-32
2022/07/10 11:22:14;;;;;;;4.28;2.40;;;17.10;99.90;;;;;;4939812;28;90348;-31
2022/07/10 11:24:54;;;;;;;1.95;1.42;;;17.20;99.90;;;;;;4939221;28;89717;-31
2022/07/10 11:27:48;;;;;;;4.18;1.40;;;17.20;99.90;;;;;;4939667;28;89570;-32
2022/07/10 11:30:13;;;;;;;7.55;2.20;;;17.10;99.90;;;;;;4939221;28;89170;-33
2022/07/10 11:32:39;;;;;;;1.33;1.23;;;17.10;99.90;;;;;;4939023;28;90403;-30
2022/07/10 11:35:12;;;;;;;2.35;2.13;;;17.10;99.90;;;;;;4938356;28;90952;-32
2022/07/10 11:37:50;;;;;;;2.08;1.73;;;17.00;99.90;;;;;;4939098;28;89827;-31
2022/07/10 11:40:16;;;;;;;2.97;2.05;;;17.10;99.90;;;;;;4939652;28;88746;-30
2022/07/10 11:42:52;;;;;;;3.67;1.90;;;17.00;99.90;;;;;;4938605;28;90306;-30
2022/07/10 11:45:37;;;;;;;6.38;2.47;;;17.00;99.90;;;;;;4939096;28;89926;-30
2022/07/10 11:48:04;;;;;;;7.82;2.67;;;16.90;99.90;;;;;;4938945;28;90388;-33
2022/07/10 11:50:38;;;;;;;3.45;2.45;;;16.90;99.90;;;;;;4940278;28;88347;-32
2022/07/10 11:53:04;;;;;;;4.53;2.65;;;17.00;99.90;;;;;;4945365;28;90555;-30
2022/07/10 11:55:31;;;;;;;2.85;2.13;;;17.10;99.90;;;;;;4943196;28;90353;-32
2022/07/10 11:57:57;;;;;;;3.35;2.88;;;17.10;99.90;;;;;;4938108;28;89467;-32
2022/07/10 12:00:30;;;;;;;2.42;2.08;;;17.10;99.90;;;;;;4938633;28;90170;-31
2022/07/10 12:03:15;;;;;;;4.68;3.28;;;17.20;99.90;;;;;;4938218;28;90704;-33
2022/07/10 12:05:41;;;;;;;4.35;2.40;;;17.30;99.90;;;;;;4941791;23;89924;-31
2022/07/10 12:08:07;;;;;;;3.45;1.50;;;17.30;99.90;;;;;;4900108;28;89590;-34
2022/07/10 12:10:34;;;;;;;4.22;2.58;;;17.30;99.90;;;;;;4899721;28;89559;-32
2022/07/10 12:13:11;;;;;;;3.47;2.70;;;17.40;99.90;;;;;;4900212;28;89675;-31
2022/07/10 12:15:40;;;;;;;2.10;1.90;;;17.60;99.90;;;;;;4898085;28;89729;-29
2022/07/10 12:18:16;;;;;;;4.32;2.35;;;17.70;99.90;;;;;;4899511;28;89039;-32
2022/07/10 12:20:45;;;;;;;5.03;2.55;;;17.80;99.90;;;;;;4899702;28;89438;-34
2022/07/10 12:23:14;;;;;;;4.93;2.58;;;17.80;99.90;;;;;;4893900;28;90304;-31
2022/07/10 12:25:41;;;;;;;4.05;3.40;;;17.80;99.90;;;;;;4879755;28;90689;-32
2022/07/10 12:28:06;;;;;;;2.63;2.42;;;17.80;99.90;;;;;;4873626;28;90641;-32
2022/07/10 12:30:42;;;;;;;5.05;3.00;;;17.70;99.90;;;;;;4880791;28;89492;-32
2022/07/10 12:33:20;;;;;;;3.58;2.22;;;17.60;99.90;;;;;;4880116;28;90359;-33
2022/07/10 12:35:57;;;;;;;5.45;3.08;;;17.60;99.90;;;;;;4884436;28;90123;-33
2022/07/10 12:38:25;;;;;;;4.70;2.30;;;17.50;99.90;;;;;;4881333;28;91303;-32
2022/07/10 12:41:08;;;;;;;5.97;2.50;;;17.50;99.90;;;;;;4879437;28;88424;-31
2022/07/10 12:43:34;;;;;;;2.75;2.28;;;17.50;99.90;;;;;;4881794;28;90417;-32
2022/07/10 12:46:22;;;;;;;2.28;2.05;;;17.60;99.90;;;;;;4880510;28;89802;-32
2022/07/10 12:49:00;;;;;;;5.13;2.30;;;17.60;99.90;;;;;;4879723;28;89362;-30
2022/07/10 12:51:28;;;;;;;7.50;2.70;;;17.70;99.90;;;;;;4879215;28;88875;-32
2022/07/10 12:53:54;;;;;;;7.68;2.03;;;17.80;99.90;;;;;;4878974;28;90040;-32
2022/07/10 12:56:32;;;;;;;4.30;2.97;;;17.80;99.90;;;;;;4880156;28;90220;-31
2022/07/10 12:58:59;;;;;;;4.90;2.05;;;17.70;99.90;;;;;;4893921;28;89797;-30
2022/07/10 13:01:38;;;;;;;1.88;1.73;;;17.60;99.90;;;;;;4899042;28;89046;-31
2022/07/10 13:04:05;;;;;;;2.05;1.85;;;17.40;99.90;;;;;;4899075;28;90055;-29